sensor_id;sensor_type;location;lat;lon;timestamp;P1;durP1;ratioP1;P2;durP2;ratioP2
50429;SDS011;36359;41.556;-8.418;2023-07-22T00:01:23;5.07;;;2.47;;
50429;SDS011;36359;41.556;-8.418;2023-07-22T00:03:49;5.65;;;2.30;;
50429;SDS011;36359;41.556;-8.418;2023-07-22T00:06:15;4.05;;;2.90;;
50429;SDS011;36359;41.556;-8.418;2023-07-22T00:08:40;2.78;;;2.17;;
50429;SDS011;36359;41.556;-8.418;2023-07-22T00:11:06;3.35;;;2.25;;
50429;SDS011;36359;41.556;-8.418;2023-07-22T00:13:33;4.38;;;2.63;;
50429;SDS011;36359;41.556;-8.418;2023-07-22T00:15:59;5.93;;;3.13;;
50429;SDS011;36359;41.556;-8.418;2023-07-22T00:18:26;3.03;;;2.15;;
50429;SDS011;36359;41.556;-8.418;2023-07-22T00:20:53;2.97;;;2.28;;
50429;SDS011;36359;41.556;-8.418;2023-07-22T00:23:19;3.90;;;2.80;;
50429;SDS011;36359;41.556;-8.418;2023-07-22T00:25:46;4.13;;;2.67;;
50429;SDS011;36359;41.556;-8.418;2023-07-22T00:28:12;3.33;;;1.95;;
50429;SDS011;36359;41.556;-8.418;2023-07-22T00:30:38;3.80;;;2.35;;
50429;SDS011;36359;41.556;-8.418;2023-07-22T00:33:03;3.17;;;2.60;;
50429;SDS011;36359;41.556;-8.418;2023-07-22T00:35:30;3.63;;;2.10;;
50429;SDS011;36359;41.556;-8.418;2023-07-22T00:37:57;3.65;;;2.17;;
50429;SDS011;36359;41.556;-8.418;2023-07-22T00:40:23;3.42;;;2.40;;
50429;SDS011;36359;41.556;-8.418;2023-07-22T00:42:49;3.08;;;2.17;;
50429;SDS011;36359;41.556;-8.418;2023-07-22T00:45:15;2.78;;;2.17;;
50429;SDS011;36359;41.556;-8.418;2023-07-22T00:47:41;5.50;;;3.25;;
50429;SDS011;36359;41.556;-8.418;2023-07-22T00:50:07;3.60;;;3.08;;
50429;SDS011;36359;41.556;-8.418;2023-07-22T00:52:34;3.67;;;2.70;;
50429;SDS011;36359;41.556;-8.418;2023-07-22T00:55:00;6.25;;;3.33;;
50429;SDS011;36359;41.556;-8.418;2023-07-22T00:57:27;3.47;;;2.45;;
50429;SDS011;36359;41.556;-8.418;2023-07-22T00:59:53;3.85;;;2.30;;
50429;SDS011;36359;41.556;-8.418;2023-07-22T01:02:20;3.80;;;2.47;;
50429;SDS011;36359;41.556;-8.418;2023-07-22T01:04:46;5.38;;;2.95;;
50429;SDS011;36359;41.556;-8.418;2023-07-22T01:07:13;4.70;;;3.13;;
50429;SDS011;36359;41.556;-8.418;2023-07-22T01:09:40;7.50;;;3.67;;
50429;SDS011;36359;41.556;-8.418;2023-07-22T01:12:06;3.97;;;3.03;;
50429;SDS011;36359;41.556;-8.418;2023-07-22T01:14:34;5.38;;;3.20;;
50429;SDS011;36359;41.556;-8.418;2023-07-22T01:17:01;4.05;;;2.55;;
50429;SDS011;36359;41.556;-8.418;2023-07-22T01:19:28;6.05;;;2.28;;
50429;SDS011;36359;41.556;-8.418;2023-07-22T01:21:56;6.53;;;3.13;;
50429;SDS011;36359;41.556;-8.418;2023-07-22T01:24:24;5.78;;;3.25;;
50429;SDS011;36359;41.556;-8.418;2023-07-22T01:26:51;4.47;;;2.70;;
50429;SDS011;36359;41.556;-8.418;2023-07-22T01:29:17;5.13;;;2.65;;
50429;SDS011;36359;41.556;-8.418;2023-07-22T01:31:45;3.67;;;2.50;;
50429;SDS011;36359;41.556;-8.418;2023-07-22T01:34:12;3.90;;;2.85;;
50429;SDS011;36359;41.556;-8.418;2023-07-22T01:36:38;6.13;;;3.40;;
50429;SDS011;36359;41.556;-8.418;2023-07-22T01:39:04;4.15;;;2.60;;
50429;SDS011;36359;41.556;-8.418;2023-07-22T01:41:31;5.90;;;3.30;;
50429;SDS011;36359;41.556;-8.418;2023-07-22T01:43:57;4.63;;;2.80;;
50429;SDS011;36359;41.556;-8.418;2023-07-22T01:46:22;4.32;;;2.90;;
50429;SDS011;36359;41.556;-8.418;2023-07-22T01:48:48;4.93;;;2.75;;
50429;SDS011;36359;41.556;-8.418;2023-07-22T01:51:14;7.75;;;3.20;;
50429;SDS011;36359;41.556;-8.418;2023-07-22T01:53:39;4.32;;;2.90;;
50429;SDS011;36359;41.556;-8.418;2023-07-22T01:56:05;6.47;;;3.95;;
50429;SDS011;36359;41.556;-8.418;2023-07-22T01:58:31;6.35;;;3.85;;
50429;SDS011;36359;41.556;-8.418;2023-07-22T02:00:57;6.25;;;3.78;;
50429;SDS011;36359;41.556;-8.418;2023-07-22T02:03:23;3.50;;;2.20;;
50429;SDS011;36359;41.556;-8.418;2023-07-22T02:05:49;4.50;;;2.63;;
50429;SDS011;36359;41.556;-8.418;2023-07-22T02:08:15;4.97;;;3.00;;
50429;SDS011;36359;41.556;-8.418;2023-07-22T02:10:41;5.80;;;3.38;;
50429;SDS011;36359;41.556;-8.418;2023-07-22T02:13:06;3.13;;;2.40;;
50429;SDS011;36359;41.556;-8.418;2023-07-22T02:15:32;6.65;;;4.00;;
50429;SDS011;36359;41.556;-8.418;2023-07-22T02:17:58;5.10;;;3.40;;
50429;SDS011;36359;41.556;-8.418;2023-07-22T02:20:24;4.97;;;3.03;;
50429;SDS011;36359;41.556;-8.418;2023-07-22T02:22:54;6.20;;;3.00;;
50429;SDS011;36359;41.556;-8.418;2023-07-22T02:25:20;3.78;;;2.45;;
50429;SDS011;36359;41.556;-8.418;2023-07-22T02:27:46;4.35;;;2.95;;
50429;SDS011;36359;41.556;-8.418;2023-07-22T02:30:11;4.43;;;2.60;;
50429;SDS011;36359;41.556;-8.418;2023-07-22T02:32:38;6.03;;;2.95;;
50429;SDS011;36359;41.556;-8.418;2023-07-22T02:35:08;4.63;;;2.80;;
50429;SDS011;36359;41.556;-8.418;2023-07-22T02:37:36;3.72;;;2.92;;
50429;SDS011;36359;41.556;-8.418;2023-07-22T02:40:03;5.32;;;3.10;;
50429;SDS011;36359;41.556;-8.418;2023-07-22T02:42:35;4.47;;;2.63;;
50429;SDS011;36359;41.556;-8.418;2023-07-22T02:45:01;3.95;;;2.80;;
50429;SDS011;36359;41.556;-8.418;2023-07-22T02:47:28;4.45;;;2.63;;
50429;SDS011;36359;41.556;-8.418;2023-07-22T02:49:54;3.65;;;2.30;;
50429;SDS011;36359;41.556;-8.418;2023-07-22T02:52:19;3.92;;;2.70;;
50429;SDS011;36359;41.556;-8.418;2023-07-22T02:55:03;3.78;;;2.40;;
50429;SDS011;36359;41.556;-8.418;2023-07-22T02:57:45;4.45;;;2.70;;
50429;SDS011;36359;41.556;-8.418;2023-07-22T03:00:12;3.10;;;2.28;;
50429;SDS011;36359;41.556;-8.418;2023-07-22T03:02:42;3.15;;;2.40;;
50429;SDS011;36359;41.556;-8.418;2023-07-22T03:05:08;6.43;;;3.60;;
50429;SDS011;36359;41.556;-8.418;2023-07-22T03:07:38;7.43;;;3.45;;
50429;SDS011;36359;41.556;-8.418;2023-07-22T03:10:07;5.85;;;3.55;;
50429;SDS011;36359;41.556;-8.418;2023-07-22T03:12:34;5.95;;;4.10;;
50429;SDS011;36359;41.556;-8.418;2023-07-22T03:17:32;3.85;;;3.05;;
50429;SDS011;36359;41.556;-8.418;2023-07-22T03:19:57;5.72;;;3.78;;
50429;SDS011;36359;41.556;-8.418;2023-07-22T03:22:23;8.07;;;3.53;;
50429;SDS011;36359;41.556;-8.418;2023-07-22T03:24:49;3.33;;;2.60;;
50429;SDS011;36359;41.556;-8.418;2023-07-22T03:27:15;6.20;;;4.78;;
50429;SDS011;36359;41.556;-8.418;2023-07-22T03:29:42;5.43;;;3.30;;
50429;SDS011;36359;41.556;-8.418;2023-07-22T03:32:08;6.55;;;4.40;;
50429;SDS011;36359;41.556;-8.418;2023-07-22T03:34:34;6.65;;;4.00;;
50429;SDS011;36359;41.556;-8.418;2023-07-22T03:37:00;4.35;;;3.25;;
50429;SDS011;36359;41.556;-8.418;2023-07-22T03:39:26;5.97;;;3.75;;
50429;SDS011;36359;41.556;-8.418;2023-07-22T03:41:52;3.75;;;2.92;;
50429;SDS011;36359;41.556;-8.418;2023-07-22T03:44:17;3.90;;;2.85;;
50429;SDS011;36359;41.556;-8.418;2023-07-22T03:46:43;6.85;;;4.20;;
50429;SDS011;36359;41.556;-8.418;2023-07-22T03:49:09;3.60;;;3.00;;
50429;SDS011;36359;41.556;-8.418;2023-07-22T03:51:35;4.70;;;2.97;;
50429;SDS011;36359;41.556;-8.418;2023-07-22T03:54:00;6.32;;;3.92;;
50429;SDS011;36359;41.556;-8.418;2023-07-22T03:56:26;4.75;;;3.10;;
50429;SDS011;36359;41.556;-8.418;2023-07-22T03:58:52;3.75;;;2.67;;
50429;SDS011;36359;41.556;-8.418;2023-07-22T04:01:18;6.10;;;3.50;;
50429;SDS011;36359;41.556;-8.418;2023-07-22T04:03:44;4.40;;;2.90;;
50429;SDS011;36359;41.556;-8.418;2023-07-22T04:06:10;4.97;;;3.20;;
50429;SDS011;36359;41.556;-8.418;2023-07-22T04:08:36;4.90;;;2.83;;
50429;SDS011;36359;41.556;-8.418;2023-07-22T04:11:02;5.18;;;3.22;;
50429;SDS011;36359;41.556;-8.418;2023-07-22T04:13:28;4.95;;;3.63;;
50429;SDS011;36359;41.556;-8.418;2023-07-22T04:15:54;5.13;;;3.80;;
50429;SDS011;36359;41.556;-8.418;2023-07-22T04:18:20;5.68;;;4.30;;
50429;SDS011;36359;41.556;-8.418;2023-07-22T04:20:46;5.28;;;3.88;;
50429;SDS011;36359;41.556;-8.418;2023-07-22T04:23:15;6.05;;;3.92;;
50429;SDS011;36359;41.556;-8.418;2023-07-22T04:25:44;5.93;;;3.40;;
50429;SDS011;36359;41.556;-8.418;2023-07-22T04:28:10;4.68;;;3.83;;
50429;SDS011;36359;41.556;-8.418;2023-07-22T04:30:37;6.22;;;4.03;;
50429;SDS011;36359;41.556;-8.418;2023-07-22T04:33:03;4.70;;;3.38;;
50429;SDS011;36359;41.556;-8.418;2023-07-22T04:35:40;3.55;;;3.25;;
50429;SDS011;36359;41.556;-8.418;2023-07-22T04:38:06;4.50;;;2.83;;
50429;SDS011;36359;41.556;-8.418;2023-07-22T04:40:32;3.83;;;2.70;;
50429;SDS011;36359;41.556;-8.418;2023-07-22T04:42:58;5.70;;;3.55;;
50429;SDS011;36359;41.556;-8.418;2023-07-22T04:45:23;7.32;;;3.97;;
50429;SDS011;36359;41.556;-8.418;2023-07-22T04:47:52;5.13;;;3.13;;
50429;SDS011;36359;41.556;-8.418;2023-07-22T04:50:18;4.47;;;3.10;;
50429;SDS011;36359;41.556;-8.418;2023-07-22T04:52:47;5.72;;;4.53;;
50429;SDS011;36359;41.556;-8.418;2023-07-22T04:55:13;5.05;;;3.80;;
50429;SDS011;36359;41.556;-8.418;2023-07-22T04:57:39;3.72;;;2.90;;
50429;SDS011;36359;41.556;-8.418;2023-07-22T05:00:09;5.60;;;3.58;;
50429;SDS011;36359;41.556;-8.418;2023-07-22T05:02:37;7.18;;;3.45;;
50429;SDS011;36359;41.556;-8.418;2023-07-22T05:05:03;4.63;;;3.42;;
50429;SDS011;36359;41.556;-8.418;2023-07-22T05:07:29;4.13;;;3.00;;
50429;SDS011;36359;41.556;-8.418;2023-07-22T05:09:55;4.05;;;3.17;;
50429;SDS011;36359;41.556;-8.418;2023-07-22T05:12:21;5.95;;;3.63;;
50429;SDS011;36359;41.556;-8.418;2023-07-22T05:14:47;5.70;;;3.30;;
50429;SDS011;36359;41.556;-8.418;2023-07-22T05:17:14;3.50;;;2.95;;
50429;SDS011;36359;41.556;-8.418;2023-07-22T05:19:40;5.00;;;3.65;;
50429;SDS011;36359;41.556;-8.418;2023-07-22T05:22:06;4.53;;;3.15;;
50429;SDS011;36359;41.556;-8.418;2023-07-22T05:24:32;10.40;;;3.53;;
50429;SDS011;36359;41.556;-8.418;2023-07-22T05:26:58;4.40;;;2.90;;
50429;SDS011;36359;41.556;-8.418;2023-07-22T05:29:24;5.50;;;3.75;;
50429;SDS011;36359;41.556;-8.418;2023-07-22T05:31:50;5.78;;;3.78;;
50429;SDS011;36359;41.556;-8.418;2023-07-22T05:34:15;4.60;;;3.17;;
50429;SDS011;36359;41.556;-8.418;2023-07-22T05:36:41;5.32;;;3.70;;
50429;SDS011;36359;41.556;-8.418;2023-07-22T05:39:07;4.05;;;3.28;;
50429;SDS011;36359;41.556;-8.418;2023-07-22T05:41:33;4.53;;;2.85;;
50429;SDS011;36359;41.556;-8.418;2023-07-22T05:43:59;4.28;;;3.22;;
50429;SDS011;36359;41.556;-8.418;2023-07-22T05:46:24;4.32;;;2.90;;
50429;SDS011;36359;41.556;-8.418;2023-07-22T05:48:50;5.55;;;3.72;;
50429;SDS011;36359;41.556;-8.418;2023-07-22T05:51:16;3.83;;;2.75;;
50429;SDS011;36359;41.556;-8.418;2023-07-22T05:53:43;5.70;;;3.40;;
50429;SDS011;36359;41.556;-8.418;2023-07-22T05:56:09;3.95;;;2.85;;
50429;SDS011;36359;41.556;-8.418;2023-07-22T05:58:34;10.65;;;4.45;;
50429;SDS011;36359;41.556;-8.418;2023-07-22T06:01:00;6.30;;;4.18;;
50429;SDS011;36359;41.556;-8.418;2023-07-22T06:03:26;3.80;;;3.25;;
50429;SDS011;36359;41.556;-8.418;2023-07-22T06:05:52;4.47;;;3.65;;
50429;SDS011;36359;41.556;-8.418;2023-07-22T06:08:18;7.45;;;4.72;;
50429;SDS011;36359;41.556;-8.418;2023-07-22T06:10:43;3.92;;;3.03;;
50429;SDS011;36359;41.556;-8.418;2023-07-22T06:13:12;6.53;;;5.07;;
50429;SDS011;36359;41.556;-8.418;2023-07-22T06:15:37;7.35;;;5.00;;
50429;SDS011;36359;41.556;-8.418;2023-07-22T06:18:03;4.75;;;3.25;;
50429;SDS011;36359;41.556;-8.418;2023-07-22T06:20:33;5.13;;;2.95;;
50429;SDS011;36359;41.556;-8.418;2023-07-22T06:22:58;13.93;;;10.15;;
50429;SDS011;36359;41.556;-8.418;2023-07-22T06:25:24;10.63;;;8.80;;
50429;SDS011;36359;41.556;-8.418;2023-07-22T06:27:50;6.32;;;4.45;;
50429;SDS011;36359;41.556;-8.418;2023-07-22T06:30:16;5.65;;;5.15;;
50429;SDS011;36359;41.556;-8.418;2023-07-22T06:32:41;9.65;;;5.60;;
50429;SDS011;36359;41.556;-8.418;2023-07-22T06:35:07;7.40;;;4.55;;
50429;SDS011;36359;41.556;-8.418;2023-07-22T06:37:33;6.28;;;4.32;;
50429;SDS011;36359;41.556;-8.418;2023-07-22T06:39:59;6.53;;;4.35;;
50429;SDS011;36359;41.556;-8.418;2023-07-22T06:42:25;9.13;;;6.47;;
50429;SDS011;36359;41.556;-8.418;2023-07-22T06:44:51;10.15;;;6.88;;
50429;SDS011;36359;41.556;-8.418;2023-07-22T06:47:17;8.40;;;6.35;;
50429;SDS011;36359;41.556;-8.418;2023-07-22T06:49:43;9.52;;;6.75;;
50429;SDS011;36359;41.556;-8.418;2023-07-22T06:52:08;12.95;;;7.32;;
50429;SDS011;36359;41.556;-8.418;2023-07-22T06:54:34;10.65;;;6.90;;
50429;SDS011;36359;41.556;-8.418;2023-07-22T06:57:01;9.93;;;6.53;;
50429;SDS011;36359;41.556;-8.418;2023-07-22T06:59:26;9.80;;;7.47;;
50429;SDS011;36359;41.556;-8.418;2023-07-22T07:01:52;12.02;;;6.20;;
50429;SDS011;36359;41.556;-8.418;2023-07-22T07:04:18;5.38;;;4.00;;
50429;SDS011;36359;41.556;-8.418;2023-07-22T07:06:44;9.82;;;5.88;;
50429;SDS011;36359;41.556;-8.418;2023-07-22T07:09:11;9.05;;;5.50;;
50429;SDS011;36359;41.556;-8.418;2023-07-22T07:11:37;7.75;;;5.00;;
50429;SDS011;36359;41.556;-8.418;2023-07-22T07:14:03;5.93;;;4.68;;
50429;SDS011;36359;41.556;-8.418;2023-07-22T07:19:01;7.85;;;3.95;;
50429;SDS011;36359;41.556;-8.418;2023-07-22T07:21:27;9.55;;;4.00;;
50429;SDS011;36359;41.556;-8.418;2023-07-22T07:23:53;5.05;;;3.72;;
50429;SDS011;36359;41.556;-8.418;2023-07-22T07:26:19;5.20;;;3.30;;
50429;SDS011;36359;41.556;-8.418;2023-07-22T07:28:46;3.30;;;2.70;;
50429;SDS011;36359;41.556;-8.418;2023-07-22T07:31:13;4.13;;;2.67;;
50429;SDS011;36359;41.556;-8.418;2023-07-22T07:33:39;3.80;;;2.58;;
50429;SDS011;36359;41.556;-8.418;2023-07-22T07:36:04;5.25;;;2.55;;
50429;SDS011;36359;41.556;-8.418;2023-07-22T07:38:30;4.25;;;3.33;;
50429;SDS011;36359;41.556;-8.418;2023-07-22T07:40:57;4.55;;;2.63;;
50429;SDS011;36359;41.556;-8.418;2023-07-22T07:43:25;5.40;;;2.33;;
50429;SDS011;36359;41.556;-8.418;2023-07-22T07:46:11;3.38;;;2.33;;
50429;SDS011;36359;41.556;-8.418;2023-07-22T07:48:43;7.53;;;2.67;;
50429;SDS011;36359;41.556;-8.418;2023-07-22T07:51:11;4.80;;;2.00;;
50429;SDS011;36359;41.556;-8.418;2023-07-22T07:53:38;3.85;;;2.35;;
50429;SDS011;36359;41.556;-8.418;2023-07-22T07:56:03;3.45;;;2.28;;
50429;SDS011;36359;41.556;-8.418;2023-07-22T07:58:30;3.63;;;2.17;;
50429;SDS011;36359;41.556;-8.418;2023-07-22T08:00:55;4.95;;;2.40;;
50429;SDS011;36359;41.556;-8.418;2023-07-22T08:03:21;5.45;;;2.60;;
50429;SDS011;36359;41.556;-8.418;2023-07-22T08:05:47;3.28;;;2.35;;
50429;SDS011;36359;41.556;-8.418;2023-07-22T08:08:12;4.60;;;2.60;;
50429;SDS011;36359;41.556;-8.418;2023-07-22T08:10:38;3.67;;;2.30;;
50429;SDS011;36359;41.556;-8.418;2023-07-22T08:13:04;5.22;;;2.20;;
50429;SDS011;36359;41.556;-8.418;2023-07-22T08:15:31;5.78;;;2.38;;
50429;SDS011;36359;41.556;-8.418;2023-07-22T08:17:56;4.28;;;2.10;;
50429;SDS011;36359;41.556;-8.418;2023-07-22T08:20:22;3.65;;;2.55;;
50429;SDS011;36359;41.556;-8.418;2023-07-22T08:22:48;3.28;;;2.28;;
50429;SDS011;36359;41.556;-8.418;2023-07-22T08:25:13;5.78;;;2.88;;
50429;SDS011;36359;41.556;-8.418;2023-07-22T08:27:39;3.42;;;2.40;;
50429;SDS011;36359;41.556;-8.418;2023-07-22T08:30:05;6.90;;;2.95;;
50429;SDS011;36359;41.556;-8.418;2023-07-22T08:32:31;4.82;;;2.42;;
50429;SDS011;36359;41.556;-8.418;2023-07-22T08:34:57;6.20;;;2.97;;
50429;SDS011;36359;41.556;-8.418;2023-07-22T08:37:22;4.80;;;3.47;;
50429;SDS011;36359;41.556;-8.418;2023-07-22T08:39:48;9.95;;;2.75;;
50429;SDS011;36359;41.556;-8.418;2023-07-22T08:42:14;4.90;;;2.75;;
50429;SDS011;36359;41.556;-8.418;2023-07-22T08:44:43;3.55;;;2.50;;
50429;SDS011;36359;41.556;-8.418;2023-07-22T08:47:10;5.55;;;2.40;;
50429;SDS011;36359;41.556;-8.418;2023-07-22T08:49:41;5.43;;;2.50;;
50429;SDS011;36359;41.556;-8.418;2023-07-22T08:52:11;5.50;;;2.55;;
50429;SDS011;36359;41.556;-8.418;2023-07-22T08:54:39;4.97;;;2.75;;
50429;SDS011;36359;41.556;-8.418;2023-07-22T08:57:06;5.38;;;2.83;;
50429;SDS011;36359;41.556;-8.418;2023-07-22T08:59:34;5.38;;;2.75;;
50429;SDS011;36359;41.556;-8.418;2023-07-22T09:02:01;4.07;;;2.40;;
50429;SDS011;36359;41.556;-8.418;2023-07-22T09:04:27;5.25;;;3.10;;
50429;SDS011;36359;41.556;-8.418;2023-07-22T09:06:53;4.00;;;2.78;;
50429;SDS011;36359;41.556;-8.418;2023-07-22T09:09:21;4.90;;;2.90;;
50429;SDS011;36359;41.556;-8.418;2023-07-22T09:11:48;4.00;;;2.65;;
50429;SDS011;36359;41.556;-8.418;2023-07-22T09:14:15;5.45;;;3.03;;
50429;SDS011;36359;41.556;-8.418;2023-07-22T09:16:43;5.22;;;2.60;;
50429;SDS011;36359;41.556;-8.418;2023-07-22T09:19:09;7.50;;;2.60;;
50429;SDS011;36359;41.556;-8.418;2023-07-22T09:21:35;4.85;;;2.80;;
50429;SDS011;36359;41.556;-8.418;2023-07-22T09:24:19;19.13;;;4.60;;
50429;SDS011;36359;41.556;-8.418;2023-07-22T09:26:50;6.60;;;2.83;;
50429;SDS011;36359;41.556;-8.418;2023-07-22T09:29:16;8.65;;;3.10;;
50429;SDS011;36359;41.556;-8.418;2023-07-22T09:31:49;5.13;;;2.92;;
50429;SDS011;36359;41.556;-8.418;2023-07-22T09:34:16;5.18;;;2.97;;
50429;SDS011;36359;41.556;-8.418;2023-07-22T09:36:49;6.00;;;2.97;;
50429;SDS011;36359;41.556;-8.418;2023-07-22T09:39:16;3.88;;;2.70;;
50429;SDS011;36359;41.556;-8.418;2023-07-22T09:41:42;4.47;;;2.60;;
50429;SDS011;36359;41.556;-8.418;2023-07-22T09:44:09;4.32;;;2.95;;
50429;SDS011;36359;41.556;-8.418;2023-07-22T09:46:35;5.70;;;3.28;;
50429;SDS011;36359;41.556;-8.418;2023-07-22T09:49:05;6.90;;;3.58;;
50429;SDS011;36359;41.556;-8.418;2023-07-22T09:51:36;4.88;;;2.60;;
50429;SDS011;36359;41.556;-8.418;2023-07-22T09:54:04;5.85;;;3.38;;
50429;SDS011;36359;41.556;-8.418;2023-07-22T09:56:30;7.18;;;3.88;;
50429;SDS011;36359;41.556;-8.418;2023-07-22T09:58:58;4.95;;;2.90;;
50429;SDS011;36359;41.556;-8.418;2023-07-22T10:01:24;4.15;;;2.95;;
50429;SDS011;36359;41.556;-8.418;2023-07-22T10:03:54;3.70;;;2.80;;
50429;SDS011;36359;41.556;-8.418;2023-07-22T10:06:26;5.05;;;2.80;;
50429;SDS011;36359;41.556;-8.418;2023-07-22T10:08:56;3.80;;;2.92;;
50429;SDS011;36359;41.556;-8.418;2023-07-22T10:11:22;4.05;;;2.72;;
50429;SDS011;36359;41.556;-8.418;2023-07-22T10:13:52;4.47;;;3.28;;
50429;SDS011;36359;41.556;-8.418;2023-07-22T10:16:18;6.20;;;3.20;;
50429;SDS011;36359;41.556;-8.418;2023-07-22T10:18:45;5.53;;;3.22;;
50429;SDS011;36359;41.556;-8.418;2023-07-22T10:21:12;4.07;;;2.95;;
50429;SDS011;36359;41.556;-8.418;2023-07-22T10:23:38;7.57;;;3.30;;
50429;SDS011;36359;41.556;-8.418;2023-07-22T10:26:05;4.40;;;3.20;;
50429;SDS011;36359;41.556;-8.418;2023-07-22T10:28:32;7.85;;;2.70;;
50429;SDS011;36359;41.556;-8.418;2023-07-22T10:30:58;4.40;;;3.15;;
50429;SDS011;36359;41.556;-8.418;2023-07-22T10:33:25;7.88;;;3.47;;
50429;SDS011;36359;41.556;-8.418;2023-07-22T10:38:34;6.57;;;3.40;;
50429;SDS011;36359;41.556;-8.418;2023-07-22T10:41:01;3.95;;;3.05;;
50429;SDS011;36359;41.556;-8.418;2023-07-22T10:43:36;11.02;;;4.20;;
50429;SDS011;36359;41.556;-8.418;2023-07-22T10:46:11;4.32;;;2.97;;
50429;SDS011;36359;41.556;-8.418;2023-07-22T10:48:41;19.05;;;6.05;;
50429;SDS011;36359;41.556;-8.418;2023-07-22T10:51:11;5.43;;;3.50;;
50429;SDS011;36359;41.556;-8.418;2023-07-22T10:53:42;11.70;;;4.75;;
50429;SDS011;36359;41.556;-8.418;2023-07-22T10:56:13;6.95;;;3.50;;
50429;SDS011;36359;41.556;-8.418;2023-07-22T11:11:52;5.57;;;3.63;;
50429;SDS011;36359;41.556;-8.418;2023-07-22T11:14:24;5.22;;;3.40;;
50429;SDS011;36359;41.556;-8.418;2023-07-22T11:16:51;4.93;;;3.55;;
50429;SDS011;36359;41.556;-8.418;2023-07-22T11:19:18;7.20;;;3.50;;
50429;SDS011;36359;41.556;-8.418;2023-07-22T11:21:46;5.25;;;3.92;;
50429;SDS011;36359;41.556;-8.418;2023-07-22T11:24:13;6.10;;;3.58;;
50429;SDS011;36359;41.556;-8.418;2023-07-22T11:26:40;4.95;;;3.20;;
50429;SDS011;36359;41.556;-8.418;2023-07-22T11:29:06;5.88;;;3.67;;
50429;SDS011;36359;41.556;-8.418;2023-07-22T11:31:33;3.85;;;3.08;;
50429;SDS011;36359;41.556;-8.418;2023-07-22T11:33:59;5.32;;;3.20;;
50429;SDS011;36359;41.556;-8.418;2023-07-22T11:36:26;4.88;;;3.10;;
50429;SDS011;36359;41.556;-8.418;2023-07-22T11:38:52;4.97;;;3.38;;
50429;SDS011;36359;41.556;-8.418;2023-07-22T11:41:20;5.05;;;3.10;;
50429;SDS011;36359;41.556;-8.418;2023-07-22T11:43:45;5.15;;;3.58;;
50429;SDS011;36359;41.556;-8.418;2023-07-22T11:46:11;5.15;;;3.60;;
50429;SDS011;36359;41.556;-8.418;2023-07-22T11:48:37;4.75;;;3.75;;
50429;SDS011;36359;41.556;-8.418;2023-07-22T11:51:02;4.85;;;3.30;;
50429;SDS011;36359;41.556;-8.418;2023-07-22T11:53:28;6.15;;;3.50;;
50429;SDS011;36359;41.556;-8.418;2023-07-22T11:55:55;4.60;;;3.40;;
50429;SDS011;36359;41.556;-8.418;2023-07-22T11:58:24;6.28;;;3.53;;
50429;SDS011;36359;41.556;-8.418;2023-07-22T12:01:06;6.30;;;3.88;;
50429;SDS011;36359;41.556;-8.418;2023-07-22T12:03:35;4.53;;;3.05;;
50429;SDS011;36359;41.556;-8.418;2023-07-22T12:06:02;4.53;;;2.72;;
50429;SDS011;36359;41.556;-8.418;2023-07-22T12:08:42;4.45;;;3.28;;
50429;SDS011;36359;41.556;-8.418;2023-07-22T12:11:15;7.80;;;3.72;;
50429;SDS011;36359;41.556;-8.418;2023-07-22T12:13:42;5.30;;;3.47;;
50429;SDS011;36359;41.556;-8.418;2023-07-22T12:16:11;5.28;;;3.42;;
50429;SDS011;36359;41.556;-8.418;2023-07-22T12:18:44;4.65;;;3.30;;
50429;SDS011;36359;41.556;-8.418;2023-07-22T12:21:10;5.43;;;3.53;;
50429;SDS011;36359;41.556;-8.418;2023-07-22T12:23:36;5.50;;;3.30;;
50429;SDS011;36359;41.556;-8.418;2023-07-22T12:26:03;4.13;;;3.33;;
50429;SDS011;36359;41.556;-8.418;2023-07-22T12:28:32;4.45;;;3.13;;
50429;SDS011;36359;41.556;-8.418;2023-07-22T12:30:58;4.95;;;3.40;;
50429;SDS011;36359;41.556;-8.418;2023-07-22T12:33:24;4.35;;;3.15;;
50429;SDS011;36359;41.556;-8.418;2023-07-22T12:35:51;4.70;;;3.13;;
50429;SDS011;36359;41.556;-8.418;2023-07-22T12:38:18;5.05;;;3.15;;
50429;SDS011;36359;41.556;-8.418;2023-07-22T12:40:44;5.22;;;3.50;;
50429;SDS011;36359;41.556;-8.418;2023-07-22T12:43:10;5.22;;;3.42;;
50429;SDS011;36359;41.556;-8.418;2023-07-22T12:45:35;4.75;;;3.08;;
50429;SDS011;36359;41.556;-8.418;2023-07-22T12:48:01;5.00;;;3.30;;
50429;SDS011;36359;41.556;-8.418;2023-07-22T12:50:30;7.28;;;3.72;;
50429;SDS011;36359;41.556;-8.418;2023-07-22T12:53:00;6.43;;;3.20;;
50429;SDS011;36359;41.556;-8.418;2023-07-22T12:55:26;5.10;;;3.38;;
50429;SDS011;36359;41.556;-8.418;2023-07-22T12:57:51;4.47;;;3.28;;
50429;SDS011;36359;41.556;-8.418;2023-07-22T13:00:18;4.90;;;3.30;;
50429;SDS011;36359;41.556;-8.418;2023-07-22T13:02:44;5.22;;;3.40;;
50429;SDS011;36359;41.556;-8.418;2023-07-22T13:05:09;3.92;;;3.05;;
50429;SDS011;36359;41.556;-8.418;2023-07-22T13:07:36;5.47;;;3.80;;
50429;SDS011;36359;41.556;-8.418;2023-07-22T13:10:02;5.88;;;3.20;;
50429;SDS011;36359;41.556;-8.418;2023-07-22T13:12:34;4.63;;;2.78;;
50429;SDS011;36359;41.556;-8.418;2023-07-22T13:14:59;5.22;;;3.55;;
50429;SDS011;36359;41.556;-8.418;2023-07-22T13:17:25;4.53;;;3.40;;
50429;SDS011;36359;41.556;-8.418;2023-07-22T13:19:51;4.70;;;3.30;;
50429;SDS011;36359;41.556;-8.418;2023-07-22T13:22:17;4.97;;;3.50;;
50429;SDS011;36359;41.556;-8.418;2023-07-22T13:24:43;5.15;;;3.60;;
50429;SDS011;36359;41.556;-8.418;2023-07-22T13:27:08;4.65;;;3.50;;
50429;SDS011;36359;41.556;-8.418;2023-07-22T13:29:34;6.28;;;3.67;;
50429;SDS011;36359;41.556;-8.418;2023-07-22T13:32:00;5.47;;;3.78;;
50429;SDS011;36359;41.556;-8.418;2023-07-22T13:34:25;5.47;;;3.47;;
50429;SDS011;36359;41.556;-8.418;2023-07-22T13:36:51;5.95;;;3.45;;
50429;SDS011;36359;41.556;-8.418;2023-07-22T13:39:17;5.43;;;3.55;;
50429;SDS011;36359;41.556;-8.418;2023-07-22T13:41:42;4.25;;;3.35;;
50429;SDS011;36359;41.556;-8.418;2023-07-22T13:44:08;6.65;;;4.00;;
50429;SDS011;36359;41.556;-8.418;2023-07-22T13:46:34;5.25;;;3.58;;
50429;SDS011;36359;41.556;-8.418;2023-07-22T13:49:00;4.82;;;3.38;;
50429;SDS011;36359;41.556;-8.418;2023-07-22T13:51:25;5.88;;;3.88;;
50429;SDS011;36359;41.556;-8.418;2023-07-22T13:53:51;6.85;;;4.07;;
50429;SDS011;36359;41.556;-8.418;2023-07-22T13:56:20;5.97;;;3.88;;
50429;SDS011;36359;41.556;-8.418;2023-07-22T13:58:46;5.70;;;3.72;;
50429;SDS011;36359;41.556;-8.418;2023-07-22T14:01:12;5.38;;;3.67;;
50429;SDS011;36359;41.556;-8.418;2023-07-22T14:03:38;4.18;;;3.10;;
50429;SDS011;36359;41.556;-8.418;2023-07-22T14:06:04;5.80;;;3.63;;
50429;SDS011;36359;41.556;-8.418;2023-07-22T14:08:30;4.45;;;3.17;;
50429;SDS011;36359;41.556;-8.418;2023-07-22T14:10:55;5.30;;;3.75;;
50429;SDS011;36359;41.556;-8.418;2023-07-22T14:13:21;5.22;;;3.53;;
50429;SDS011;36359;41.556;-8.418;2023-07-22T14:15:47;6.93;;;4.15;;
50429;SDS011;36359;41.556;-8.418;2023-07-22T14:18:12;5.07;;;3.63;;
50429;SDS011;36359;41.556;-8.418;2023-07-22T14:20:44;5.07;;;3.40;;
50429;SDS011;36359;41.556;-8.418;2023-07-22T14:23:11;5.47;;;3.58;;
50429;SDS011;36359;41.556;-8.418;2023-07-22T14:25:37;4.85;;;3.45;;
50429;SDS011;36359;41.556;-8.418;2023-07-22T14:28:03;4.93;;;3.65;;
50429;SDS011;36359;41.556;-8.418;2023-07-22T14:30:29;5.38;;;3.78;;
50429;SDS011;36359;41.556;-8.418;2023-07-22T14:32:54;4.50;;;3.30;;
50429;SDS011;36359;41.556;-8.418;2023-07-22T14:35:20;6.05;;;3.65;;
50429;SDS011;36359;41.556;-8.418;2023-07-22T14:37:47;7.20;;;3.25;;
50429;SDS011;36359;41.556;-8.418;2023-07-22T14:40:13;6.13;;;3.40;;
50429;SDS011;36359;41.556;-8.418;2023-07-22T14:42:39;6.78;;;3.78;;
50429;SDS011;36359;41.556;-8.418;2023-07-22T14:45:05;4.97;;;3.65;;
50429;SDS011;36359;41.556;-8.418;2023-07-22T14:47:32;6.88;;;3.55;;
50429;SDS011;36359;41.556;-8.418;2023-07-22T14:49:57;5.07;;;3.65;;
50429;SDS011;36359;41.556;-8.418;2023-07-22T14:52:23;4.43;;;3.47;;